createdAt,value
2024-05-09T00:02:08.217Z,16.80
2024-05-09T00:04:38.711Z,16.80
2024-05-09T00:07:10.972Z,16.70
2024-05-09T00:09:41.035Z,16.70
2024-05-09T00:12:13.772Z,16.60
2024-05-09T00:14:43.832Z,16.60
2024-05-09T00:17:13.955Z,16.60
2024-05-09T00:19:46.910Z,16.60
2024-05-09T00:22:17.242Z,16.50
2024-05-09T00:24:47.317Z,16.50
2024-05-09T00:27:20.960Z,16.50
2024-05-09T00:29:52.389Z,16.40
2024-05-09T00:32:22.829Z,16.40
2024-05-09T00:34:53.033Z,16.40
2024-05-09T00:37:23.325Z,16.40
2024-05-09T00:39:53.501Z,16.40
2024-05-09T00:42:26.225Z,16.30
2024-05-09T00:44:56.430Z,16.30
2024-05-09T00:47:29.769Z,16.30
2024-05-09T00:50:00.347Z,16.30
2024-05-09T00:52:31.255Z,16.30
2024-05-09T00:55:02.481Z,16.20
2024-05-09T00:57:35.359Z,16.20
2024-05-09T01:00:07.700Z,16.10
2024-05-09T01:02:39.318Z,16.10
2024-05-09T01:05:10.594Z,16.10
2024-05-09T01:07:41.443Z,16.10
2024-05-09T01:10:17.427Z,16.10
2024-05-09T01:12:56.484Z,16.00
2024-05-09T01:15:29.750Z,16.00
2024-05-09T01:18:01.845Z,16.00
2024-05-09T01:20:40.864Z,16.00
2024-05-09T01:23:16.874Z,15.90
2024-05-09T01:25:47.313Z,15.90
2024-05-09T01:28:17.370Z,15.90
2024-05-09T01:30:47.304Z,15.90
2024-05-09T01:33:17.845Z,15.80
2024-05-09T01:35:47.752Z,15.80
2024-05-09T01:38:20.695Z,15.80
2024-05-09T01:40:51.703Z,15.70
2024-05-09T01:43:21.970Z,15.70
2024-05-09T01:45:52.022Z,15.70
2024-05-09T01:48:22.148Z,15.70
2024-05-09T01:50:52.343Z,15.70
2024-05-09T01:53:25.060Z,15.70
2024-05-09T01:55:55.391Z,15.60
2024-05-09T01:58:25.559Z,15.60
2024-05-09T02:00:56.149Z,15.60
2024-05-09T02:03:26.429Z,15.60
2024-05-09T02:05:56.523Z,15.60
2024-05-09T02:08:29.386Z,15.60
2024-05-09T02:10:59.735Z,15.60
2024-05-09T02:13:29.713Z,15.50
2024-05-09T02:15:59.973Z,15.50
2024-05-09T02:18:30.054Z,15.50
2024-05-09T02:21:01.685Z,15.40
2024-05-09T02:23:34.506Z,15.40
2024-05-09T02:26:04.617Z,15.40
2024-05-09T02:28:34.591Z,15.40
2024-05-09T02:31:04.730Z,15.40
2024-05-09T02:33:34.905Z,15.30
2024-05-09T02:36:05.562Z,15.30
2024-05-09T02:38:35.812Z,15.30
2024-05-09T02:41:06.289Z,15.30
2024-05-09T02:43:33.942Z,15.20
2024-05-09T02:46:04.266Z,15.20
2024-05-09T02:48:32.057Z,15.20
2024-05-09T02:51:04.917Z,15.20
2024-05-09T02:53:38.217Z,15.20
2024-05-09T02:56:11.823Z,15.10
2024-05-09T02:58:39.450Z,15.10
2024-05-09T03:01:09.588Z,15.10
2024-05-09T03:03:37.134Z,15.00
2024-05-09T03:06:10.882Z,15.00
2024-05-09T03:08:44.779Z,15.00
2024-05-09T03:11:23.726Z,15.00
2024-05-09T03:13:51.604Z,14.90
2024-05-09T03:16:25.122Z,14.90
2024-05-09T03:18:55.685Z,14.80
2024-05-09T03:21:27.326Z,14.80
2024-05-09T03:23:58.082Z,14.80
2024-05-09T03:26:28.095Z,14.80
2024-05-09T03:28:55.602Z,14.80
2024-05-09T03:31:28.776Z,14.80
2024-05-09T03:33:56.237Z,14.80
2024-05-09T03:36:26.550Z,14.80
2024-05-09T03:38:56.825Z,14.80
2024-05-09T03:41:29.819Z,14.80
2024-05-09T03:44:00.175Z,14.70
2024-05-09T03:46:30.877Z,14.70
2024-05-09T03:49:01.498Z,14.70
2024-05-09T03:51:29.333Z,14.70
2024-05-09T03:54:00.706Z,14.60
2024-05-09T03:56:31.110Z,14.60
2024-05-09T03:59:01.501Z,14.60
2024-05-09T04:01:30.113Z,14.60
2024-05-09T04:04:00.172Z,14.60
2024-05-09T04:06:27.534Z,14.60
2024-05-09T04:08:57.562Z,14.60
2024-05-09T04:11:25.707Z,14.60
2024-05-09T04:13:58.710Z,14.60
2024-05-09T04:16:26.328Z,14.60
2024-05-09T04:18:56.939Z,14.60
2024-05-09T04:21:24.889Z,14.60
2024-05-09T04:23:57.516Z,14.50
2024-05-09T04:26:25.208Z,14.50
2024-05-09T04:28:58.267Z,14.50
2024-05-09T04:31:25.653Z,14.50
2024-05-09T04:33:55.711Z,14.50
2024-05-09T04:36:26.202Z,14.50
2024-05-09T04:38:57.215Z,14.50
2024-05-09T04:41:24.909Z,14.50
2024-05-09T04:43:57.964Z,14.50
2024-05-09T04:46:28.203Z,14.50
2024-05-09T04:48:58.577Z,14.50
2024-05-09T04:51:26.075Z,14.40
2024-05-09T04:53:56.517Z,14.50
2024-05-09T04:56:24.027Z,14.50
2024-05-09T04:58:54.056Z,14.50
2024-05-09T05:01:22.466Z,14.50
2024-05-09T05:03:56.134Z,14.50
2024-05-09T05:06:24.532Z,14.50
2024-05-09T05:08:54.427Z,14.50
2024-05-09T05:11:22.218Z,14.60
2024-05-09T05:13:52.335Z,14.60
2024-05-09T05:16:22.109Z,14.60
2024-05-09T05:18:55.122Z,14.60
2024-05-09T05:21:25.979Z,14.70
2024-05-09T05:23:56.433Z,14.70
2024-05-09T05:26:24.001Z,14.70
2024-05-09T05:28:56.632Z,14.70
2024-05-09T05:31:27.182Z,14.80
2024-05-09T05:34:00.226Z,14.80
2024-05-09T05:36:30.260Z,14.80
2024-05-09T05:39:00.123Z,14.80
2024-05-09T05:41:27.585Z,14.90
2024-05-09T05:43:57.716Z,14.90
2024-05-09T05:46:25.165Z,14.90
2024-05-09T05:48:55.554Z,15.00
2024-05-09T05:51:25.873Z,15.00
2024-05-09T05:53:56.177Z,15.10
2024-05-09T05:56:23.767Z,15.10
2024-05-09T05:58:53.784Z,15.10
2024-05-09T06:01:21.217Z,15.20
2024-05-09T06:03:51.632Z,15.20
2024-05-09T06:06:19.235Z,15.20
2024-05-09T06:08:52.430Z,15.20
2024-05-09T06:11:19.843Z,15.20
2024-05-09T06:13:50.055Z,15.20
2024-05-09T06:16:17.561Z,15.30
2024-05-09T06:18:47.990Z,15.30
2024-05-09T06:21:19.484Z,15.30
2024-05-09T06:23:53.446Z,15.40
2024-05-09T06:26:21.138Z,15.40
2024-05-09T06:28:51.318Z,15.50
2024-05-09T06:31:18.836Z,15.50
2024-05-09T06:33:49.168Z,15.50
2024-05-09T06:36:17.215Z,15.50
2024-05-09T06:38:49.757Z,15.60
2024-05-09T06:41:19.810Z,15.60
2024-05-09T06:43:50.394Z,15.60
2024-05-09T06:46:18.361Z,15.70
2024-05-09T06:48:49.304Z,15.70
2024-05-09T06:51:17.157Z,15.70
2024-05-09T06:53:47.474Z,15.70
2024-05-09T06:56:15.471Z,15.70
2024-05-09T06:58:48.283Z,15.80
2024-05-09T07:01:15.777Z,15.80
2024-05-09T07:03:46.204Z,15.90
2024-05-09T07:06:19.613Z,15.90
2024-05-09T07:08:51.885Z,16.00
2024-05-09T07:11:19.900Z,16.00
2024-05-09T07:13:52.454Z,16.10
2024-05-09T07:16:20.150Z,16.10
2024-05-09T07:18:55.070Z,16.20
2024-05-09T07:21:22.827Z,16.20
2024-05-09T07:23:52.995Z,16.20
2024-05-09T07:26:20.486Z,16.30
2024-05-09T07:28:53.326Z,16.30
2024-05-09T07:31:20.916Z,16.30
2024-05-09T07:33:51.013Z,16.40
2024-05-09T07:36:18.721Z,16.40
2024-05-09T07:38:48.833Z,16.40
2024-05-09T07:41:16.716Z,16.40
2024-05-09T07:43:46.809Z,16.40
2024-05-09T07:47:14.187Z,16.50
2024-05-09T07:50:54.065Z,16.50
2024-05-09T07:53:25.372Z,16.50
2024-05-09T07:54:53.397Z,16.50
2024-05-09T07:57:23.189Z,16.50
2024-05-09T07:59:54.266Z,16.60
2024-05-09T08:02:24.553Z,16.60
2024-05-09T08:04:54.712Z,16.60
2024-05-09T08:07:22.205Z,16.70
2024-05-09T08:09:52.312Z,16.70
2024-05-09T08:12:19.811Z,16.70
2024-05-09T08:14:49.938Z,16.80
2024-05-09T08:17:17.646Z,16.80
2024-05-09T08:19:51.504Z,16.80
2024-05-09T08:22:21.677Z,16.80
2024-05-09T08:24:49.396Z,16.90
2024-05-09T08:27:20.803Z,16.90
2024-05-09T08:29:48.300Z,17.00
2024-05-09T08:32:18.373Z,17.20
2024-05-09T08:34:48.554Z,17.30
2024-05-09T08:37:22.422Z,17.50
2024-05-09T08:39:52.305Z,17.60
2024-05-09T08:42:26.534Z,17.80
2024-05-09T08:44:54.776Z,17.90
2024-05-09T08:47:25.110Z,18.10
2024-05-09T08:49:58.695Z,18.20
2024-05-09T08:52:29.187Z,18.20
2024-05-09T08:54:56.952Z,18.00
2024-05-09T08:57:29.259Z,18.00
2024-05-09T09:00:07.996Z,17.90
2024-05-09T09:02:41.638Z,17.80
2024-05-09T09:05:17.035Z,17.70
2024-05-09T09:07:48.652Z,17.70
2024-05-09T09:10:24.967Z,17.70
2024-05-09T09:13:04.993Z,17.80
2024-05-09T09:15:33.217Z,17.80
2024-05-09T09:18:09.536Z,17.70
2024-05-09T09:20:42.043Z,17.60
2024-05-09T09:23:12.699Z,17.70
2024-05-09T09:25:40.841Z,17.70
2024-05-09T09:28:12.393Z,17.70
2024-05-09T09:33:12.500Z,17.50
2024-05-09T09:35:45.534Z,17.60
2024-05-09T09:38:21.138Z,17.70
2024-05-09T09:40:50.692Z,17.90
2024-05-09T09:43:23.258Z,18.10
2024-05-09T09:45:53.157Z,18.10
2024-05-09T09:48:24.865Z,18.10
2024-05-09T09:50:55.639Z,18.00
2024-05-09T09:53:26.587Z,17.90
2024-05-09T09:55:54.651Z,17.80
2024-05-09T09:58:25.680Z,17.70
2024-05-09T10:00:55.420Z,17.70
2024-05-09T10:03:25.794Z,17.60
2024-05-09T10:05:56.972Z,17.60
2024-05-09T10:08:27.134Z,17.60
2024-05-09T10:10:55.616Z,17.70
2024-05-09T10:13:36.063Z,17.70
2024-05-09T10:16:09.449Z,17.80
2024-05-09T10:18:39.973Z,17.80
2024-05-09T10:21:20.345Z,17.80
2024-05-09T10:24:00.116Z,17.80
2024-05-09T10:26:32.810Z,17.80
2024-05-09T10:29:03.497Z,17.80
2024-05-09T10:31:31.438Z,17.90
2024-05-09T10:34:04.376Z,18.00
2024-05-09T10:36:43.072Z,18.20
2024-05-09T10:39:13.843Z,18.40
2024-05-09T10:41:41.434Z,18.50
2024-05-09T10:44:14.166Z,18.60
2024-05-09T10:46:41.986Z,18.70
2024-05-09T10:49:12.595Z,18.80
2024-05-09T10:51:45.128Z,18.80
2024-05-09T10:54:15.238Z,18.80
2024-05-09T10:56:44.964Z,18.90
2024-05-09T10:59:15.801Z,18.90
2024-05-09T11:01:43.711Z,19.10
2024-05-09T11:04:13.993Z,19.30
2024-05-09T11:06:46.678Z,19.40
2024-05-09T11:09:17.232Z,19.60
2024-05-09T11:11:44.956Z,19.70
2024-05-09T11:14:15.579Z,19.60
2024-05-09T11:16:43.455Z,19.70
2024-05-09T11:19:15.916Z,19.80
2024-05-09T11:21:51.389Z,19.90
2024-05-09T11:24:21.578Z,19.80
2024-05-09T11:26:48.996Z,19.90
2024-05-09T11:29:19.824Z,20.00
2024-05-09T11:31:47.785Z,20.10
2024-05-09T11:34:18.395Z,20.00
2024-05-09T11:36:48.822Z,20.10
2024-05-09T11:39:19.189Z,20.10
2024-05-09T11:41:46.935Z,20.20
2024-05-09T11:44:18.757Z,20.30
2024-05-09T11:46:46.477Z,20.40
2024-05-09T11:49:16.941Z,20.60
2024-05-09T11:51:44.708Z,20.70
2024-05-09T11:54:19.215Z,20.60
2024-05-09T11:56:46.856Z,20.70
2024-05-09T11:59:17.118Z,20.80
2024-05-09T12:01:44.641Z,20.80
2024-05-09T12:04:15.282Z,20.80
2024-05-09T12:06:42.957Z,20.90
2024-05-09T12:09:13.495Z,20.90
2024-05-09T12:11:44.261Z,21.10
2024-05-09T12:14:14.571Z,21.20
2024-05-09T12:16:42.392Z,21.30
2024-05-09T12:19:12.819Z,21.30
2024-05-09T12:21:40.719Z,21.30
2024-05-09T12:24:11.707Z,21.30
2024-05-09T12:26:44.611Z,21.20
2024-05-09T12:29:17.483Z,21.30
2024-05-09T12:31:44.974Z,21.50
2024-05-09T12:34:16.280Z,21.50
2024-05-09T12:36:44.316Z,21.50
2024-05-09T12:39:14.797Z,21.60
2024-05-09T12:41:45.058Z,21.60
2024-05-09T12:44:15.325Z,21.60
2024-05-09T12:46:43.028Z,21.60
2024-05-09T12:49:16.409Z,21.40
2024-05-09T12:51:44.722Z,21.40
2024-05-09T12:54:14.933Z,21.40
2024-05-09T12:56:45.164Z,21.40
2024-05-09T12:59:15.547Z,21.40
2024-05-09T13:01:47.742Z,21.40
2024-05-09T13:04:15.267Z,21.40
2024-05-09T13:06:45.817Z,21.50
2024-05-09T13:09:13.606Z,21.50
2024-05-09T13:11:43.918Z,21.60
2024-05-09T13:14:16.883Z,21.60
2024-05-09T13:16:47.230Z,21.60
2024-05-09T13:19:14.851Z,21.50
2024-05-09T13:21:48.054Z,21.50
2024-05-09T13:24:15.656Z,21.40
2024-05-09T13:26:45.663Z,21.40
2024-05-09T13:29:16.410Z,21.50
2024-05-09T13:31:46.740Z,21.30
2024-05-09T13:34:16.887Z,21.20
2024-05-09T13:36:44.812Z,21.20
2024-05-09T13:39:15.022Z,21.30
2024-05-09T13:41:42.789Z,21.30
2024-05-09T13:44:13.485Z,21.30
2024-05-09T13:46:45.677Z,21.30
2024-05-09T13:49:17.124Z,21.50
2024-05-09T13:51:45.000Z,21.60
2024-05-09T13:54:16.724Z,21.70
2024-05-09T13:56:45.690Z,21.90
2024-05-09T13:59:15.911Z,22.00
2024-05-09T14:01:46.166Z,22.10
2024-05-09T14:04:17.075Z,22.20
2024-05-09T14:06:44.733Z,22.20
2024-05-09T14:09:15.160Z,21.90
2024-05-09T14:11:42.910Z,21.90
2024-05-09T14:14:15.584Z,21.90
2024-05-09T14:16:46.299Z,21.90
2024-05-09T14:19:16.735Z,22.00
2024-05-09T14:21:47.843Z,21.70
2024-05-09T14:24:18.133Z,21.60
2024-05-09T14:26:45.869Z,21.70
2024-05-09T14:29:15.950Z,21.70
2024-05-09T14:31:46.429Z,21.80
2024-05-09T14:34:18.462Z,21.90
2024-05-09T14:36:46.078Z,22.00
2024-05-09T14:39:16.401Z,22.20
2024-05-09T14:41:43.896Z,22.30
2024-05-09T14:44:14.303Z,22.60
2024-05-09T14:46:42.549Z,22.80
2024-05-09T14:49:15.828Z,23.20
2024-05-09T14:51:47.514Z,24.00
2024-05-09T14:54:18.072Z,24.90
2024-05-09T14:56:45.491Z,25.40
2024-05-09T14:59:15.734Z,25.70
2024-05-09T15:01:43.618Z,25.80
2024-05-09T15:04:19.465Z,25.70
2024-05-09T15:06:48.751Z,25.90
2024-05-09T15:09:18.891Z,26.10
2024-05-09T15:11:47.753Z,26.30
2024-05-09T15:14:18.255Z,26.90
2024-05-09T15:16:45.880Z,27.20
2024-05-09T15:19:18.974Z,27.60
2024-05-09T15:21:46.761Z,27.80
2024-05-09T15:24:17.314Z,28.10
2024-05-09T15:26:45.032Z,28.60
2024-05-09T15:29:15.107Z,28.80
2024-05-09T15:31:42.661Z,28.50
2024-05-09T15:34:13.015Z,28.30
2024-05-09T15:36:43.501Z,28.30
2024-05-09T15:39:13.438Z,28.20
2024-05-09T15:41:41.073Z,28.00
2024-05-09T15:44:11.248Z,27.40
2024-05-09T15:46:39.175Z,26.70
2024-05-09T15:49:09.383Z,26.20
2024-05-09T15:51:37.311Z,25.70
2024-05-09T15:54:10.369Z,25.20
2024-05-09T15:56:40.732Z,25.10
2024-05-09T15:59:10.994Z,25.20
2024-05-09T16:01:38.658Z,25.10
2024-05-09T16:04:13.257Z,24.70
2024-05-09T16:06:41.412Z,24.60
2024-05-09T16:09:14.025Z,24.60
2024-05-09T16:11:44.783Z,24.80
2024-05-09T16:14:16.158Z,25.00
2024-05-09T16:16:43.815Z,24.90
2024-05-09T16:19:14.404Z,25.00
2024-05-09T16:21:42.007Z,25.30
2024-05-09T16:24:14.842Z,25.50
2024-05-09T16:26:43.814Z,25.70
2024-05-09T16:29:14.124Z,26.00
2024-05-09T16:31:41.589Z,26.30
2024-05-09T16:34:14.810Z,26.50
2024-05-09T16:36:46.777Z,26.50
2024-05-09T16:39:19.505Z,26.30
2024-05-09T16:41:46.961Z,26.30
2024-05-09T16:44:17.246Z,26.10
2024-05-09T16:46:47.971Z,25.70
2024-05-09T16:49:18.429Z,25.40
2024-05-09T16:51:46.118Z,25.30
2024-05-09T16:54:18.864Z,25.20
2024-05-09T16:56:46.510Z,25.20
2024-05-09T16:59:16.686Z,25.10
2024-05-09T17:01:44.456Z,24.90
2024-05-09T17:04:14.701Z,24.70
2024-05-09T17:06:42.436Z,24.70
2024-05-09T17:09:15.600Z,24.70
2024-05-09T17:11:50.890Z,24.60
2024-05-09T17:14:23.861Z,24.50
2024-05-09T17:16:54.120Z,24.50
2024-05-09T17:19:24.399Z,24.40
2024-05-09T17:21:52.323Z,24.30
2024-05-09T17:24:22.743Z,24.20
2024-05-09T17:26:53.146Z,24.10
2024-05-09T17:29:23.141Z,24.00
2024-05-09T17:31:50.579Z,23.90
2024-05-09T17:34:21.025Z,23.70
2024-05-09T17:36:48.476Z,23.50
2024-05-09T17:39:18.968Z,23.30
2024-05-09T17:41:46.316Z,23.20
2024-05-09T17:44:19.132Z,23.20
2024-05-09T17:46:49.835Z,23.30
2024-05-09T17:49:17.670Z,23.30
2024-05-09T17:51:54.737Z,23.50
2024-05-09T17:54:22.246Z,23.80
2024-05-09T17:56:53.379Z,24.20
2024-05-09T17:59:24.294Z,24.50
2024-05-09T18:01:54.642Z,24.60
2024-05-09T18:04:22.535Z,24.70
2024-05-09T18:06:52.787Z,24.90
2024-05-09T18:09:21.000Z,25.10
2024-05-09T18:11:51.543Z,25.20
2024-05-09T18:14:19.087Z,25.30
2024-05-09T18:16:52.020Z,25.30
2024-05-09T18:19:19.876Z,25.30
2024-05-09T18:21:51.685Z,25.20
2024-05-09T18:24:22.045Z,25.10
2024-05-09T18:26:52.316Z,25.10
2024-05-09T18:29:22.203Z,25.00
2024-05-09T18:31:56.203Z,24.80
2024-05-09T18:34:23.726Z,24.60
2024-05-09T18:36:54.041Z,24.40
2024-05-09T18:39:21.442Z,24.30
2024-05-09T18:41:51.639Z,24.10
2024-05-09T18:44:19.185Z,23.90
2024-05-09T18:46:58.006Z,23.70
2024-05-09T18:49:25.541Z,23.30
2024-05-09T18:51:55.801Z,23.00
2024-05-09T18:54:26.064Z,22.80
2024-05-09T18:56:53.429Z,22.70
2024-05-09T18:59:23.713Z,22.60
2024-05-09T19:01:56.664Z,22.40
2024-05-09T19:04:26.881Z,22.20
2024-05-09T19:06:54.873Z,22.10
2024-05-09T19:09:25.241Z,22.00
2024-05-09T19:11:52.904Z,21.90
2024-05-09T19:14:24.714Z,21.90
2024-05-09T19:16:57.924Z,21.80
2024-05-09T19:19:31.380Z,21.80
2024-05-09T19:21:59.357Z,21.70
2024-05-09T19:24:29.798Z,21.70
2024-05-09T19:26:57.319Z,21.60
2024-05-09T19:29:28.010Z,21.50
2024-05-09T19:31:58.221Z,21.50
2024-05-09T19:34:28.273Z,21.40
2024-05-09T19:36:55.644Z,21.40
2024-05-09T19:39:25.990Z,21.30
2024-05-09T19:41:53.774Z,21.30
2024-05-09T19:44:27.045Z,21.30
2024-05-09T19:46:57.531Z,21.30
2024-05-09T19:49:27.722Z,21.30
2024-05-09T19:51:55.412Z,21.30
2024-05-09T19:54:25.654Z,21.20
2024-05-09T19:56:53.983Z,21.20
2024-05-09T19:59:24.065Z,21.10
2024-05-09T20:01:52.228Z,21.00
2024-05-09T20:04:25.165Z,21.00
2024-05-09T20:06:53.363Z,20.90
2024-05-09T20:09:23.577Z,20.90
2024-05-09T20:11:51.219Z,20.80
2024-05-09T20:14:21.283Z,20.80
2024-05-09T20:16:49.350Z,20.70
2024-05-09T20:19:19.742Z,20.70
2024-05-09T20:21:50.040Z,20.70
2024-05-09T20:24:20.225Z,20.60
2024-05-09T20:26:47.911Z,20.60
2024-05-09T20:29:17.949Z,20.50
2024-05-09T20:31:49.537Z,20.50
2024-05-09T20:34:19.746Z,20.40
2024-05-09T20:36:49.882Z,20.30
2024-05-09T20:39:21.383Z,20.30
2024-05-09T20:41:48.917Z,20.20
2024-05-09T20:44:19.301Z,20.10
2024-05-09T20:46:46.696Z,20.10
2024-05-09T20:49:17.776Z,20.10
2024-05-09T20:51:45.395Z,20.00
2024-05-09T20:54:18.195Z,20.00
2024-05-09T20:56:45.814Z,19.90
2024-05-09T20:59:18.700Z,19.90
2024-05-09T21:01:49.726Z,19.80
2024-05-09T21:04:20.318Z,19.80
2024-05-09T21:06:48.049Z,19.70
2024-05-09T21:09:25.501Z,19.70
2024-05-09T21:11:53.244Z,19.60
2024-05-09T21:14:23.343Z,19.60
2024-05-09T21:16:51.247Z,19.50
2024-05-09T21:19:21.652Z,19.50
2024-05-09T21:21:50.681Z,19.50
2024-05-09T21:24:24.593Z,19.40
2024-05-09T21:26:52.015Z,19.40
2024-05-09T21:29:21.968Z,19.40
2024-05-09T21:31:50.479Z,19.40
2024-05-09T21:34:30.297Z,19.30
2024-05-09T21:36:58.350Z,19.30
2024-05-09T21:39:33.258Z,19.20
2024-05-09T21:42:01.952Z,19.20
2024-05-09T21:44:32.979Z,19.20
2024-05-09T21:47:00.944Z,19.20
2024-05-09T21:49:31.259Z,19.10
2024-05-09T21:51:58.987Z,19.10
2024-05-09T21:54:31.852Z,19.10
2024-05-09T21:56:59.557Z,19.10
2024-05-09T21:59:29.805Z,19.10
2024-05-09T22:01:57.717Z,19.00
2024-05-09T22:04:28.125Z,19.00
2024-05-09T22:06:55.811Z,19.00
2024-05-09T22:09:25.950Z,19.00
2024-05-09T22:11:57.901Z,18.90
2024-05-09T22:14:28.464Z,18.90
2024-05-09T22:16:56.158Z,18.90
2024-05-09T22:19:26.414Z,18.90
2024-05-09T22:21:55.624Z,18.80
2024-05-09T22:24:25.874Z,18.80
2024-05-09T22:26:56.000Z,18.80
2024-05-09T22:29:26.231Z,18.70
2024-05-09T22:31:53.789Z,18.70
2024-05-09T22:34:24.429Z,18.70
2024-05-09T22:36:52.043Z,18.60
2024-05-09T22:39:25.492Z,18.60
2024-05-09T22:41:56.431Z,18.60
2024-05-09T22:44:26.769Z,18.50
2024-05-09T22:46:54.353Z,18.60
2024-05-09T22:49:24.611Z,18.50
2024-05-09T22:51:53.742Z,18.50
2024-05-09T22:54:23.941Z,18.50
2024-05-09T22:56:51.329Z,18.40
2024-05-09T22:59:24.076Z,18.40
2024-05-09T23:01:51.533Z,18.40
2024-05-09T23:04:22.043Z,18.40
2024-05-09T23:06:51.906Z,18.40
2024-05-09T23:09:22.317Z,18.30
2024-05-09T23:11:49.864Z,18.30
2024-05-09T23:14:19.870Z,18.20
2024-05-09T23:16:50.431Z,18.20
2024-05-09T23:19:21.091Z,18.20
2024-05-09T23:21:48.787Z,18.20
2024-05-09T23:24:18.939Z,18.20
2024-05-09T23:26:46.339Z,18.10
2024-05-09T23:29:16.490Z,18.10
2024-05-09T23:31:43.969Z,18.10
2024-05-09T23:34:17.875Z,18.00
2024-05-09T23:36:45.716Z,18.00
2024-05-09T23:39:15.642Z,18.00
2024-05-09T23:41:43.005Z,18.00
2024-05-09T23:44:13.037Z,18.00
2024-05-09T23:46:43.579Z,18.00
2024-05-09T23:49:16.442Z,17.90
2024-05-09T23:51:44.026Z,17.90
2024-05-09T23:54:14.116Z,17.90
2024-05-09T23:56:41.724Z,17.80
2024-05-09T23:59:11.805Z,17.80
